Gadsden, Tennessee
Current Conditions -  °F | °C
As of 2:53 PM on Tuesday 21 Oct 2014 (Local Time) from KMKL Reporting Station
Clear Clear  
Wind Chill: 75°   Ceiling: Unl
Heat Index: 75°   Visibility: 10mi
Dew Point: 46°   Wind: 6mph
Humidity: 36%   Direction: NA
Pressure: 30.05"   Gusts: NA
Location:  35.78°N, 88.99°W
Report Text: KMKL 211953Z VRB05KT 10SM CLR 24/08 A3005 RMK AO2 SLP174 T02390078
Loading
Personal Weather Stations






























Interactive Weather Map
Tropical Storm Tracking
New forecast layout! Learn more

10-Day Weather Forecast

Advertisements
Track Severe Weather on mobile